sensor_id;sensor_type;location;lat;lon;timestamp;temperature;humidity
57636;DHT22;43465;50.728;4.160;2022-09-09T00:12:57;15.50;99.90
57636;DHT22;43465;50.728;4.160;2022-09-09T00:15:38;15.60;99.90
57636;DHT22;43465;50.728;4.160;2022-09-09T00:18:22;15.60;99.90
57636;DHT22;43465;50.728;4.160;2022-09-09T00:20:55;15.60;99.90
57636;DHT22;43465;50.728;4.160;2022-09-09T00:23:30;15.60;99.90
57636;DHT22;43465;50.728;4.160;2022-09-09T00:28:40;15.60;99.90
57636;DHT22;43465;50.728;4.160;2022-09-09T00:31:18;15.60;99.90
57636;DHT22;43465;50.728;4.160;2022-09-09T00:33:46;15.60;99.90
57636;DHT22;43465;50.728;4.160;2022-09-09T00:36:15;15.60;99.90
57636;DHT22;43465;50.728;4.160;2022-09-09T00:38:49;15.60;99.90
57636;DHT22;43465;50.728;4.160;2022-09-09T00:44:03;15.50;99.90
57636;DHT22;43465;50.728;4.160;2022-09-09T00:49:52;15.70;99.90
57636;DHT22;43465;50.728;4.160;2022-09-09T00:58:13;15.50;99.90
57636;DHT22;43465;50.728;4.160;2022-09-09T01:00:51;15.50;99.90
57636;DHT22;43465;50.728;4.160;2022-09-09T01:03:34;15.50;99.90
57636;DHT22;43465;50.728;4.160;2022-09-09T01:11:32;15.50;99.90
57636;DHT22;43465;50.728;4.160;2022-09-09T01:16:40;15.60;99.90
57636;DHT22;43465;50.728;4.160;2022-09-09T01:19:11;15.60;99.90
57636;DHT22;43465;50.728;4.160;2022-09-09T01:21:43;15.60;99.90
57636;DHT22;43465;50.728;4.160;2022-09-09T01:24:31;15.70;99.90
57636;DHT22;43465;50.728;4.160;2022-09-09T01:27:02;15.70;99.90
57636;DHT22;43465;50.728;4.160;2022-09-09T01:29:29;15.60;99.90
57636;DHT22;43465;50.728;4.160;2022-09-09T01:32:35;15.60;99.90
57636;DHT22;43465;50.728;4.160;2022-09-09T01:34:50;15.60;99.90
57636;DHT22;43465;50.728;4.160;2022-09-09T01:37:16;15.60;99.90
57636;DHT22;43465;50.728;4.160;2022-09-09T01:39:43;15.60;99.90
57636;DHT22;43465;50.728;4.160;2022-09-09T01:42:13;15.50;99.90
57636;DHT22;43465;50.728;4.160;2022-09-09T01:44:39;15.60;99.90
57636;DHT22;43465;50.728;4.160;2022-09-09T01:47:06;15.60;99.90
57636;DHT22;43465;50.728;4.160;2022-09-09T01:49:32;15.60;99.90
57636;DHT22;43465;50.728;4.160;2022-09-09T01:52:01;15.60;99.90
57636;DHT22;43465;50.728;4.160;2022-09-09T01:54:29;15.50;99.90
57636;DHT22;43465;50.728;4.160;2022-09-09T01:57:15;15.60;99.90
57636;DHT22;43465;50.728;4.160;2022-09-09T02:05:30;15.60;99.90
57636;DHT22;43465;50.728;4.160;2022-09-09T02:08:06;15.60;99.90
57636;DHT22;43465;50.728;4.160;2022-09-09T02:10:39;15.60;99.90
57636;DHT22;43465;50.728;4.160;2022-09-09T02:13:10;15.60;99.90
57636;DHT22;43465;50.728;4.160;2022-09-09T02:16:10;15.70;99.90
57636;DHT22;43465;50.728;4.160;2022-09-09T02:18:54;15.60;99.90
57636;DHT22;43465;50.728;4.160;2022-09-09T02:21:21;15.70;99.90
57636;DHT22;43465;50.728;4.160;2022-09-09T02:23:49;15.70;99.90
57636;DHT22;43465;50.728;4.160;2022-09-09T02:26:19;15.60;99.90
57636;DHT22;43465;50.728;4.160;2022-09-09T02:28:49;15.70;99.90
57636;DHT22;43465;50.728;4.160;2022-09-09T02:31:18;15.70;99.90
57636;DHT22;43465;50.728;4.160;2022-09-09T02:33:47;15.70;99.90
57636;DHT22;43465;50.728;4.160;2022-09-09T02:36:18;15.60;99.90
57636;DHT22;43465;50.728;4.160;2022-09-09T02:38:46;15.60;99.90
57636;DHT22;43465;50.728;4.160;2022-09-09T02:41:20;15.60;99.90
57636;DHT22;43465;50.728;4.160;2022-09-09T02:43:48;15.60;99.90
57636;DHT22;43465;50.728;4.160;2022-09-09T02:49:28;15.50;99.90
57636;DHT22;43465;50.728;4.160;2022-09-09T02:54:33;15.50;99.90
57636;DHT22;43465;50.728;4.160;2022-09-09T02:57:08;15.60;99.90
57636;DHT22;43465;50.728;4.160;2022-09-09T02:59:36;15.60;99.90
57636;DHT22;43465;50.728;4.160;2022-09-09T03:02:02;15.60;99.90
57636;DHT22;43465;50.728;4.160;2022-09-09T03:04:28;15.50;99.90
57636;DHT22;43465;50.728;4.160;2022-09-09T03:06:55;15.50;99.90
57636;DHT22;43465;50.728;4.160;2022-09-09T03:09:21;15.50;99.90
57636;DHT22;43465;50.728;4.160;2022-09-09T03:11:47;15.50;99.90
57636;DHT22;43465;50.728;4.160;2022-09-09T03:14:12;15.50;99.90
57636;DHT22;43465;50.728;4.160;2022-09-09T03:16:38;15.50;99.90
57636;DHT22;43465;50.728;4.160;2022-09-09T03:19:04;15.50;99.90
57636;DHT22;43465;50.728;4.160;2022-09-09T03:21:29;15.50;99.90
57636;DHT22;43465;50.728;4.160;2022-09-09T03:23:55;15.50;99.90
57636;DHT22;43465;50.728;4.160;2022-09-09T03:26:22;15.50;99.90
57636;DHT22;43465;50.728;4.160;2022-09-09T03:28:48;15.60;99.90
57636;DHT22;43465;50.728;4.160;2022-09-09T03:31:15;15.60;99.90
57636;DHT22;43465;50.728;4.160;2022-09-09T03:33:40;15.60;99.90
57636;DHT22;43465;50.728;4.160;2022-09-09T03:36:06;15.60;99.90
57636;DHT22;43465;50.728;4.160;2022-09-09T03:38:34;15.70;99.90
57636;DHT22;43465;50.728;4.160;2022-09-09T03:41:00;15.70;99.90
57636;DHT22;43465;50.728;4.160;2022-09-09T03:43:28;15.70;99.90
57636;DHT22;43465;50.728;4.160;2022-09-09T03:45:54;15.70;99.90
57636;DHT22;43465;50.728;4.160;2022-09-09T03:48:23;15.70;99.90
57636;DHT22;43465;50.728;4.160;2022-09-09T03:50:51;15.70;99.90
57636;DHT22;43465;50.728;4.160;2022-09-09T03:53:19;15.70;99.90
57636;DHT22;43465;50.728;4.160;2022-09-09T03:55:47;15.80;99.90
57636;DHT22;43465;50.728;4.160;2022-09-09T03:58:16;15.80;99.90
57636;DHT22;43465;50.728;4.160;2022-09-09T04:00:52;15.80;99.90
57636;DHT22;43465;50.728;4.160;2022-09-09T04:03:18;15.80;99.90
57636;DHT22;43465;50.728;4.160;2022-09-09T04:05:44;15.80;99.90
57636;DHT22;43465;50.728;4.160;2022-09-09T04:08:09;15.70;99.90
57636;DHT22;43465;50.728;4.160;2022-09-09T04:10:35;15.80;99.90
57636;DHT22;43465;50.728;4.160;2022-09-09T04:13:05;15.70;99.90
57636;DHT22;43465;50.728;4.160;2022-09-09T04:15:31;15.70;99.90
57636;DHT22;43465;50.728;4.160;2022-09-09T04:17:57;15.70;99.90
57636;DHT22;43465;50.728;4.160;2022-09-09T04:20:23;15.60;99.90
57636;DHT22;43465;50.728;4.160;2022-09-09T04:22:48;15.70;99.90
57636;DHT22;43465;50.728;4.160;2022-09-09T04:25:14;15.60;99.90
57636;DHT22;43465;50.728;4.160;2022-09-09T04:27:40;15.60;99.90
57636;DHT22;43465;50.728;4.160;2022-09-09T04:30:06;15.70;99.90
57636;DHT22;43465;50.728;4.160;2022-09-09T04:32:35;15.70;99.90
57636;DHT22;43465;50.728;4.160;2022-09-09T04:35:02;15.70;99.90
57636;DHT22;43465;50.728;4.160;2022-09-09T04:37:28;15.70;99.90
57636;DHT22;43465;50.728;4.160;2022-09-09T04:39:53;15.70;99.90
57636;DHT22;43465;50.728;4.160;2022-09-09T04:42:19;15.70;99.90
57636;DHT22;43465;50.728;4.160;2022-09-09T04:44:45;15.70;99.90
57636;DHT22;43465;50.728;4.160;2022-09-09T04:47:11;15.70;99.90
57636;DHT22;43465;50.728;4.160;2022-09-09T04:49:37;15.70;99.90
57636;DHT22;43465;50.728;4.160;2022-09-09T04:52:04;15.60;99.90
57636;DHT22;43465;50.728;4.160;2022-09-09T04:54:29;15.70;99.90
57636;DHT22;43465;50.728;4.160;2022-09-09T04:56:55;15.60;99.90
57636;DHT22;43465;50.728;4.160;2022-09-09T04:59:21;15.60;99.90
57636;DHT22;43465;50.728;4.160;2022-09-09T05:01:47;15.70;99.90
57636;DHT22;43465;50.728;4.160;2022-09-09T05:04:13;15.70;99.90
57636;DHT22;43465;50.728;4.160;2022-09-09T05:06:40;15.70;99.90
57636;DHT22;43465;50.728;4.160;2022-09-09T05:09:07;15.70;99.90
57636;DHT22;43465;50.728;4.160;2022-09-09T05:11:34;15.80;99.90
57636;DHT22;43465;50.728;4.160;2022-09-09T05:14:02;15.80;99.90
57636;DHT22;43465;50.728;4.160;2022-09-09T05:16:28;15.80;99.90
57636;DHT22;43465;50.728;4.160;2022-09-09T05:18:54;15.80;99.90
57636;DHT22;43465;50.728;4.160;2022-09-09T05:21:21;15.80;99.90
57636;DHT22;43465;50.728;4.160;2022-09-09T05:23:48;15.80;99.90
57636;DHT22;43465;50.728;4.160;2022-09-09T05:26:19;15.70;99.90
57636;DHT22;43465;50.728;4.160;2022-09-09T05:28:45;15.70;99.90
57636;DHT22;43465;50.728;4.160;2022-09-09T05:31:12;15.70;99.90
57636;DHT22;43465;50.728;4.160;2022-09-09T05:33:42;15.70;99.90
57636;DHT22;43465;50.728;4.160;2022-09-09T05:36:14;15.80;99.90
57636;DHT22;43465;50.728;4.160;2022-09-09T05:38:40;15.80;99.90
57636;DHT22;43465;50.728;4.160;2022-09-09T05:41:07;15.80;99.90
57636;DHT22;43465;50.728;4.160;2022-09-09T05:43:33;15.80;99.90
57636;DHT22;43465;50.728;4.160;2022-09-09T05:46:08;15.80;99.90
57636;DHT22;43465;50.728;4.160;2022-09-09T05:48:43;15.80;99.90
57636;DHT22;43465;50.728;4.160;2022-09-09T05:51:11;15.90;99.90
57636;DHT22;43465;50.728;4.160;2022-09-09T05:53:38;16.00;99.90
57636;DHT22;43465;50.728;4.160;2022-09-09T05:56:05;15.90;99.90
57636;DHT22;43465;50.728;4.160;2022-09-09T05:58:32;16.00;99.90
57636;DHT22;43465;50.728;4.160;2022-09-09T06:01:02;16.00;99.90
57636;DHT22;43465;50.728;4.160;2022-09-09T06:03:28;16.10;99.90
57636;DHT22;43465;50.728;4.160;2022-09-09T06:05:58;16.20;99.90
57636;DHT22;43465;50.728;4.160;2022-09-09T06:08:24;16.20;99.90
57636;DHT22;43465;50.728;4.160;2022-09-09T06:10:50;16.20;99.90
57636;DHT22;43465;50.728;4.160;2022-09-09T06:13:17;16.20;99.90
57636;DHT22;43465;50.728;4.160;2022-09-09T06:15:52;16.20;99.90
57636;DHT22;43465;50.728;4.160;2022-09-09T06:18:18;16.20;99.90
57636;DHT22;43465;50.728;4.160;2022-09-09T06:21:01;16.20;99.90
57636;DHT22;43465;50.728;4.160;2022-09-09T06:23:29;16.20;99.90
57636;DHT22;43465;50.728;4.160;2022-09-09T06:26:12;16.20;99.90
57636;DHT22;43465;50.728;4.160;2022-09-09T06:28:38;16.10;99.90
57636;DHT22;43465;50.728;4.160;2022-09-09T06:31:06;16.10;99.90
57636;DHT22;43465;50.728;4.160;2022-09-09T06:33:33;16.10;99.90
57636;DHT22;43465;50.728;4.160;2022-09-09T06:36:00;16.20;99.90
57636;DHT22;43465;50.728;4.160;2022-09-09T06:38:27;16.30;99.90
57636;DHT22;43465;50.728;4.160;2022-09-09T06:40:58;16.40;99.90
57636;DHT22;43465;50.728;4.160;2022-09-09T06:43:27;16.40;99.90
57636;DHT22;43465;50.728;4.160;2022-09-09T06:48:26;16.40;99.90
57636;DHT22;43465;50.728;4.160;2022-09-09T06:51:07;16.50;99.90
57636;DHT22;43465;50.728;4.160;2022-09-09T06:53:35;16.50;99.90
57636;DHT22;43465;50.728;4.160;2022-09-09T06:58:36;16.50;99.90
57636;DHT22;43465;50.728;4.160;2022-09-09T07:01:06;16.50;99.90
57636;DHT22;43465;50.728;4.160;2022-09-09T07:03:33;16.60;99.90
57636;DHT22;43465;50.728;4.160;2022-09-09T07:05:59;16.50;99.90
57636;DHT22;43465;50.728;4.160;2022-09-09T07:08:25;16.60;99.90
57636;DHT22;43465;50.728;4.160;2022-09-09T07:10:52;16.60;99.90
57636;DHT22;43465;50.728;4.160;2022-09-09T07:13:29;16.60;99.90
57636;DHT22;43465;50.728;4.160;2022-09-09T07:15:55;16.50;99.90
57636;DHT22;43465;50.728;4.160;2022-09-09T07:18:20;16.50;99.90
57636;DHT22;43465;50.728;4.160;2022-09-09T07:20:55;16.50;99.90
57636;DHT22;43465;50.728;4.160;2022-09-09T07:23:23;16.40;99.90
57636;DHT22;43465;50.728;4.160;2022-09-09T07:25:48;16.30;99.90
57636;DHT22;43465;50.728;4.160;2022-09-09T07:28:14;16.20;99.90
57636;DHT22;43465;50.728;4.160;2022-09-09T07:30:40;16.10;99.90
57636;DHT22;43465;50.728;4.160;2022-09-09T07:33:06;16.20;99.90
57636;DHT22;43465;50.728;4.160;2022-09-09T07:35:32;16.20;99.90
57636;DHT22;43465;50.728;4.160;2022-09-09T07:38:00;16.20;99.90
57636;DHT22;43465;50.728;4.160;2022-09-09T07:40:26;16.20;99.90
57636;DHT22;43465;50.728;4.160;2022-09-09T07:42:55;16.30;99.90
57636;DHT22;43465;50.728;4.160;2022-09-09T07:45:21;16.40;99.90
57636;DHT22;43465;50.728;4.160;2022-09-09T07:47:47;16.40;99.90
57636;DHT22;43465;50.728;4.160;2022-09-09T07:50:17;16.50;99.90
57636;DHT22;43465;50.728;4.160;2022-09-09T07:52:43;16.70;99.90
57636;DHT22;43465;50.728;4.160;2022-09-09T07:55:09;16.80;99.90
57636;DHT22;43465;50.728;4.160;2022-09-09T07:57:35;17.00;99.90
57636;DHT22;43465;50.728;4.160;2022-09-09T08:00:03;17.30;99.90
57636;DHT22;43465;50.728;4.160;2022-09-09T08:02:29;17.40;99.90
57636;DHT22;43465;50.728;4.160;2022-09-09T08:04:55;17.60;99.90
57636;DHT22;43465;50.728;4.160;2022-09-09T08:07:22;17.70;99.90
57636;DHT22;43465;50.728;4.160;2022-09-09T08:09:48;17.80;99.90
57636;DHT22;43465;50.728;4.160;2022-09-09T08:12:15;17.80;99.90
57636;DHT22;43465;50.728;4.160;2022-09-09T08:14:41;17.70;99.90
57636;DHT22;43465;50.728;4.160;2022-09-09T08:17:06;17.60;99.90
57636;DHT22;43465;50.728;4.160;2022-09-09T08:19:32;17.60;99.90
57636;DHT22;43465;50.728;4.160;2022-09-09T08:22:01;17.50;99.90
57636;DHT22;43465;50.728;4.160;2022-09-09T08:24:28;17.30;99.90
57636;DHT22;43465;50.728;4.160;2022-09-09T08:26:54;17.30;99.90
57636;DHT22;43465;50.728;4.160;2022-09-09T08:29:19;17.10;99.90
57636;DHT22;43465;50.728;4.160;2022-09-09T08:31:48;17.00;99.90
57636;DHT22;43465;50.728;4.160;2022-09-09T08:34:14;17.00;99.90
57636;DHT22;43465;50.728;4.160;2022-09-09T08:36:45;17.00;99.90
57636;DHT22;43465;50.728;4.160;2022-09-09T08:39:13;16.90;99.90
57636;DHT22;43465;50.728;4.160;2022-09-09T08:53:05;16.90;99.90
57636;DHT22;43465;50.728;4.160;2022-09-09T08:55:54;16.70;99.90
57636;DHT22;43465;50.728;4.160;2022-09-09T08:58:29;16.70;99.90
57636;DHT22;43465;50.728;4.160;2022-09-09T09:09:11;16.50;99.90
57636;DHT22;43465;50.728;4.160;2022-09-09T09:11:43;16.40;99.90
57636;DHT22;43465;50.728;4.160;2022-09-09T09:14:25;16.40;99.90
57636;DHT22;43465;50.728;4.160;2022-09-09T09:19:29;16.40;99.90
57636;DHT22;43465;50.728;4.160;2022-09-09T09:22:11;16.40;99.90
57636;DHT22;43465;50.728;4.160;2022-09-09T09:27:13;16.40;99.90
57636;DHT22;43465;50.728;4.160;2022-09-09T09:29:40;16.50;99.90
57636;DHT22;43465;50.728;4.160;2022-09-09T09:32:12;16.50;99.90
57636;DHT22;43465;50.728;4.160;2022-09-09T09:34:39;16.50;99.90
57636;DHT22;43465;50.728;4.160;2022-09-09T09:37:16;16.60;99.90
57636;DHT22;43465;50.728;4.160;2022-09-09T09:39:45;16.70;99.90
57636;DHT22;43465;50.728;4.160;2022-09-09T09:42:16;16.70;99.90
57636;DHT22;43465;50.728;4.160;2022-09-09T09:44:42;16.80;99.90
57636;DHT22;43465;50.728;4.160;2022-09-09T09:47:19;16.80;99.90
57636;DHT22;43465;50.728;4.160;2022-09-09T09:52:23;16.80;99.90
57636;DHT22;43465;50.728;4.160;2022-09-09T09:54:49;16.70;99.90
57636;DHT22;43465;50.728;4.160;2022-09-09T09:57:16;16.70;99.90
57636;DHT22;43465;50.728;4.160;2022-09-09T09:59:43;16.70;99.90
57636;DHT22;43465;50.728;4.160;2022-09-09T10:02:24;16.70;99.90
57636;DHT22;43465;50.728;4.160;2022-09-09T10:05:03;16.70;99.90
57636;DHT22;43465;50.728;4.160;2022-09-09T10:07:29;16.70;99.90
57636;DHT22;43465;50.728;4.160;2022-09-09T10:09:56;16.80;99.90
57636;DHT22;43465;50.728;4.160;2022-09-09T10:26:51;17.50;99.90
57636;DHT22;43465;50.728;4.160;2022-09-09T10:37:23;17.70;99.90
57636;DHT22;43465;50.728;4.160;2022-09-09T10:40:00;17.70;99.90
57636;DHT22;43465;50.728;4.160;2022-09-09T10:42:31;17.60;99.90
57636;DHT22;43465;50.728;4.160;2022-09-09T10:45:20;17.60;99.90
57636;DHT22;43465;50.728;4.160;2022-09-09T10:48:11;17.60;99.90
57636;DHT22;43465;50.728;4.160;2022-09-09T10:50:52;17.60;99.90
57636;DHT22;43465;50.728;4.160;2022-09-09T10:56:15;17.50;99.90
57636;DHT22;43465;50.728;4.160;2022-09-09T10:58:52;17.50;99.90
57636;DHT22;43465;50.728;4.160;2022-09-09T11:01:24;17.50;99.90
57636;DHT22;43465;50.728;4.160;2022-09-09T11:04:16;17.50;99.90
57636;DHT22;43465;50.728;4.160;2022-09-09T11:06:48;17.60;99.90
57636;DHT22;43465;50.728;4.160;2022-09-09T11:09:18;17.50;99.90
57636;DHT22;43465;50.728;4.160;2022-09-09T11:11:56;17.60;99.90
57636;DHT22;43465;50.728;4.160;2022-09-09T11:20:27;17.60;99.90
57636;DHT22;43465;50.728;4.160;2022-09-09T11:25:27;17.50;99.90
57636;DHT22;43465;50.728;4.160;2022-09-09T11:28:11;17.60;99.90
57636;DHT22;43465;50.728;4.160;2022-09-09T11:33:55;17.60;99.90
57636;DHT22;43465;50.728;4.160;2022-09-09T11:44:40;17.50;99.90
57636;DHT22;43465;50.728;4.160;2022-09-09T11:47:24;17.40;99.90
57636;DHT22;43465;50.728;4.160;2022-09-09T11:50:06;17.40;99.90
57636;DHT22;43465;50.728;4.160;2022-09-09T11:52:43;17.40;99.90
57636;DHT22;43465;50.728;4.160;2022-09-09T11:57:44;17.50;99.90
57636;DHT22;43465;50.728;4.160;2022-09-09T12:00:48;17.50;99.90
57636;DHT22;43465;50.728;4.160;2022-09-09T12:03:47;17.60;99.90
57636;DHT22;43465;50.728;4.160;2022-09-09T12:08:50;17.70;99.90
57636;DHT22;43465;50.728;4.160;2022-09-09T12:11:26;17.80;99.90
57636;DHT22;43465;50.728;4.160;2022-09-09T12:13:53;18.00;99.90
57636;DHT22;43465;50.728;4.160;2022-09-09T12:16:31;18.10;99.90
57636;DHT22;43465;50.728;4.160;2022-09-09T12:22:07;18.30;99.90
57636;DHT22;43465;50.728;4.160;2022-09-09T12:27:36;18.50;99.90
57636;DHT22;43465;50.728;4.160;2022-09-09T12:30:15;18.70;99.90
57636;DHT22;43465;50.728;4.160;2022-09-09T12:32:41;18.80;99.90
57636;DHT22;43465;50.728;4.160;2022-09-09T12:35:22;18.70;99.90
57636;DHT22;43465;50.728;4.160;2022-09-09T12:37:53;18.80;99.90
57636;DHT22;43465;50.728;4.160;2022-09-09T12:40:27;18.80;99.90
57636;DHT22;43465;50.728;4.160;2022-09-09T12:42:53;18.80;99.90
57636;DHT22;43465;50.728;4.160;2022-09-09T12:45:25;18.80;99.90
57636;DHT22;43465;50.728;4.160;2022-09-09T12:48:01;18.90;99.90
57636;DHT22;43465;50.728;4.160;2022-09-09T12:50:37;18.80;99.90
57636;DHT22;43465;50.728;4.160;2022-09-09T12:55:59;19.00;99.90
57636;DHT22;43465;50.728;4.160;2022-09-09T12:58:26;19.20;99.90
57636;DHT22;43465;50.728;4.160;2022-09-09T13:00:55;19.40;99.90
57636;DHT22;43465;50.728;4.160;2022-09-09T13:03:22;19.50;99.90
57636;DHT22;43465;50.728;4.160;2022-09-09T13:05:48;19.70;99.90
57636;DHT22;43465;50.728;4.160;2022-09-09T13:08:15;19.80;99.90
57636;DHT22;43465;50.728;4.160;2022-09-09T13:13:27;19.90;99.90
57636;DHT22;43465;50.728;4.160;2022-09-09T13:15:59;19.90;99.90
57636;DHT22;43465;50.728;4.160;2022-09-09T13:18:32;19.80;99.90
57636;DHT22;43465;50.728;4.160;2022-09-09T13:20:59;19.80;99.90
57636;DHT22;43465;50.728;4.160;2022-09-09T13:23:31;19.90;99.90
57636;DHT22;43465;50.728;4.160;2022-09-09T13:26:05;20.10;99.90
57636;DHT22;43465;50.728;4.160;2022-09-09T13:28:33;20.20;99.90
57636;DHT22;43465;50.728;4.160;2022-09-09T13:31:05;20.30;99.90
57636;DHT22;43465;50.728;4.160;2022-09-09T13:33:38;20.50;99.90
57636;DHT22;43465;50.728;4.160;2022-09-09T13:36:09;20.50;99.90
57636;DHT22;43465;50.728;4.160;2022-09-09T13:38:38;20.60;99.90
57636;DHT22;43465;50.728;4.160;2022-09-09T13:41:08;20.70;99.90
57636;DHT22;43465;50.728;4.160;2022-09-09T13:43:43;20.60;99.90
57636;DHT22;43465;50.728;4.160;2022-09-09T13:49:00;20.60;99.90
57636;DHT22;43465;50.728;4.160;2022-09-09T13:51:37;20.50;99.90
57636;DHT22;43465;50.728;4.160;2022-09-09T13:54:09;20.60;99.90
57636;DHT22;43465;50.728;4.160;2022-09-09T13:56:36;20.70;99.90
57636;DHT22;43465;50.728;4.160;2022-09-09T13:59:03;20.60;99.90
57636;DHT22;43465;50.728;4.160;2022-09-09T14:01:29;20.50;99.90
57636;DHT22;43465;50.728;4.160;2022-09-09T14:03:55;20.40;99.90
57636;DHT22;43465;50.728;4.160;2022-09-09T14:06:21;20.30;99.90
57636;DHT22;43465;50.728;4.160;2022-09-09T14:08:48;20.40;99.90
57636;DHT22;43465;50.728;4.160;2022-09-09T14:11:14;20.50;99.90
57636;DHT22;43465;50.728;4.160;2022-09-09T14:13:40;20.50;99.90
57636;DHT22;43465;50.728;4.160;2022-09-09T14:16:06;20.40;99.90
57636;DHT22;43465;50.728;4.160;2022-09-09T14:18:31;20.20;99.90
57636;DHT22;43465;50.728;4.160;2022-09-09T14:20:57;20.20;99.90
57636;DHT22;43465;50.728;4.160;2022-09-09T14:23:24;20.30;99.90
57636;DHT22;43465;50.728;4.160;2022-09-09T14:25:50;20.30;99.90
57636;DHT22;43465;50.728;4.160;2022-09-09T14:28:16;20.20;99.90
57636;DHT22;43465;50.728;4.160;2022-09-09T14:30:43;20.30;99.90
57636;DHT22;43465;50.728;4.160;2022-09-09T14:33:12;20.40;99.90
57636;DHT22;43465;50.728;4.160;2022-09-09T14:35:38;20.50;99.90
57636;DHT22;43465;50.728;4.160;2022-09-09T14:38:06;20.60;99.90
57636;DHT22;43465;50.728;4.160;2022-09-09T14:40:37;20.70;99.90
57636;DHT22;43465;50.728;4.160;2022-09-09T14:43:03;20.80;99.90
57636;DHT22;43465;50.728;4.160;2022-09-09T14:45:29;20.70;99.90
57636;DHT22;43465;50.728;4.160;2022-09-09T14:47:54;20.70;99.90
57636;DHT22;43465;50.728;4.160;2022-09-09T14:50:22;20.50;99.90
57636;DHT22;43465;50.728;4.160;2022-09-09T14:52:48;20.40;99.90
57636;DHT22;43465;50.728;4.160;2022-09-09T14:55:14;20.30;99.90
57636;DHT22;43465;50.728;4.160;2022-09-09T14:57:41;20.30;99.90
57636;DHT22;43465;50.728;4.160;2022-09-09T15:00:07;20.40;99.90
57636;DHT22;43465;50.728;4.160;2022-09-09T15:02:33;20.30;99.90
57636;DHT22;43465;50.728;4.160;2022-09-09T15:04:59;20.20;99.90
57636;DHT22;43465;50.728;4.160;2022-09-09T15:07:25;20.20;99.90
57636;DHT22;43465;50.728;4.160;2022-09-09T15:09:52;20.20;99.90
57636;DHT22;43465;50.728;4.160;2022-09-09T15:12:18;20.10;99.90
57636;DHT22;43465;50.728;4.160;2022-09-09T15:14:45;20.10;99.90
57636;DHT22;43465;50.728;4.160;2022-09-09T15:17:11;20.00;99.90
57636;DHT22;43465;50.728;4.160;2022-09-09T15:19:37;19.90;99.90
57636;DHT22;43465;50.728;4.160;2022-09-09T15:22:04;19.90;99.90
57636;DHT22;43465;50.728;4.160;2022-09-09T15:24:33;19.70;99.90
57636;DHT22;43465;50.728;4.160;2022-09-09T15:26:59;19.60;99.90
57636;DHT22;43465;50.728;4.160;2022-09-09T15:29:25;19.50;99.90
57636;DHT22;43465;50.728;4.160;2022-09-09T15:31:51;19.50;99.90
57636;DHT22;43465;50.728;4.160;2022-09-09T15:34:18;19.40;99.90
57636;DHT22;43465;50.728;4.160;2022-09-09T15:36:44;19.50;99.90
57636;DHT22;43465;50.728;4.160;2022-09-09T15:39:14;19.60;99.90
57636;DHT22;43465;50.728;4.160;2022-09-09T15:41:41;19.70;99.90
57636;DHT22;43465;50.728;4.160;2022-09-09T15:44:08;19.90;99.90
57636;DHT22;43465;50.728;4.160;2022-09-09T15:46:44;20.20;99.90
57636;DHT22;43465;50.728;4.160;2022-09-09T15:51:54;20.50;99.90
57636;DHT22;43465;50.728;4.160;2022-09-09T15:54:21;20.60;99.90
57636;DHT22;43465;50.728;4.160;2022-09-09T15:56:57;20.60;99.90
57636;DHT22;43465;50.728;4.160;2022-09-09T15:59:24;20.40;99.90
57636;DHT22;43465;50.728;4.160;2022-09-09T16:01:50;20.40;99.90
57636;DHT22;43465;50.728;4.160;2022-09-09T16:04:20;20.30;99.90
57636;DHT22;43465;50.728;4.160;2022-09-09T16:07:00;20.20;99.90
57636;DHT22;43465;50.728;4.160;2022-09-09T16:09:26;20.30;99.90
57636;DHT22;43465;50.728;4.160;2022-09-09T16:11:55;20.30;99.90
57636;DHT22;43465;50.728;4.160;2022-09-09T16:14:21;20.20;99.90
57636;DHT22;43465;50.728;4.160;2022-09-09T16:16:47;20.20;99.90
57636;DHT22;43465;50.728;4.160;2022-09-09T16:19:13;20.20;99.90
57636;DHT22;43465;50.728;4.160;2022-09-09T16:21:42;20.20;99.90
57636;DHT22;43465;50.728;4.160;2022-09-09T16:24:10;20.20;99.90
57636;DHT22;43465;50.728;4.160;2022-09-09T16:26:38;20.10;99.90
57636;DHT22;43465;50.728;4.160;2022-09-09T16:29:04;20.00;99.90
57636;DHT22;43465;50.728;4.160;2022-09-09T16:31:30;19.90;99.90
57636;DHT22;43465;50.728;4.160;2022-09-09T16:33:57;19.90;99.90
57636;DHT22;43465;50.728;4.160;2022-09-09T16:36:28;19.90;99.90
57636;DHT22;43465;50.728;4.160;2022-09-09T16:38:57;20.00;99.90
57636;DHT22;43465;50.728;4.160;2022-09-09T16:41:23;20.00;99.90
57636;DHT22;43465;50.728;4.160;2022-09-09T16:44:03;20.10;99.90
57636;DHT22;43465;50.728;4.160;2022-09-09T16:46:31;20.10;99.90
57636;DHT22;43465;50.728;4.160;2022-09-09T16:48:58;20.10;99.90
57636;DHT22;43465;50.728;4.160;2022-09-09T16:51:27;20.00;99.90
57636;DHT22;43465;50.728;4.160;2022-09-09T16:53:54;19.90;99.90
57636;DHT22;43465;50.728;4.160;2022-09-09T16:56:25;19.80;99.90
57636;DHT22;43465;50.728;4.160;2022-09-09T16:58:56;19.60;99.90
57636;DHT22;43465;50.728;4.160;2022-09-09T17:01:27;19.50;99.90
57636;DHT22;43465;50.728;4.160;2022-09-09T17:04:00;19.50;99.90
57636;DHT22;43465;50.728;4.160;2022-09-09T17:06:27;19.30;99.90
57636;DHT22;43465;50.728;4.160;2022-09-09T17:08:58;19.30;99.90
57636;DHT22;43465;50.728;4.160;2022-09-09T17:11:24;19.30;99.90
57636;DHT22;43465;50.728;4.160;2022-09-09T17:13:51;19.30;99.90
57636;DHT22;43465;50.728;4.160;2022-09-09T17:16:18;19.30;99.90
57636;DHT22;43465;50.728;4.160;2022-09-09T17:18:46;19.20;99.90
57636;DHT22;43465;50.728;4.160;2022-09-09T17:21:14;19.10;99.90
57636;DHT22;43465;50.728;4.160;2022-09-09T17:23:41;19.00;99.90
57636;DHT22;43465;50.728;4.160;2022-09-09T17:26:09;18.90;99.90
57636;DHT22;43465;50.728;4.160;2022-09-09T17:28:36;18.80;99.90
57636;DHT22;43465;50.728;4.160;2022-09-09T17:31:07;18.70;99.90
57636;DHT22;43465;50.728;4.160;2022-09-09T17:33:35;18.60;99.90
57636;DHT22;43465;50.728;4.160;2022-09-09T17:36:06;18.50;99.90
57636;DHT22;43465;50.728;4.160;2022-09-09T17:38:33;18.50;99.90
57636;DHT22;43465;50.728;4.160;2022-09-09T17:41:08;18.50;99.90
57636;DHT22;43465;50.728;4.160;2022-09-09T17:43:34;18.40;99.90
57636;DHT22;43465;50.728;4.160;2022-09-09T17:46:14;18.40;99.90
57636;DHT22;43465;50.728;4.160;2022-09-09T17:48:41;18.40;99.90
57636;DHT22;43465;50.728;4.160;2022-09-09T17:51:09;18.40;99.90
57636;DHT22;43465;50.728;4.160;2022-09-09T17:53:41;18.30;99.90
57636;DHT22;43465;50.728;4.160;2022-09-09T17:56:09;18.30;99.90
57636;DHT22;43465;50.728;4.160;2022-09-09T17:58:36;18.30;99.90
57636;DHT22;43465;50.728;4.160;2022-09-09T18:01:04;18.30;99.90
57636;DHT22;43465;50.728;4.160;2022-09-09T18:03:32;18.20;99.90
57636;DHT22;43465;50.728;4.160;2022-09-09T18:06:08;18.20;99.90
57636;DHT22;43465;50.728;4.160;2022-09-09T18:08:35;18.20;99.90
57636;DHT22;43465;50.728;4.160;2022-09-09T18:11:02;18.10;99.90